sensor_id;sensor_type;location;lat;lon;timestamp;pressure;altitude;pressure_sealevel;temperature;humidity
10718;BME280;13513;42.700;23.124;2022-12-31T00:02:22;93880.64;;;8.15;90.58
10718;BME280;13513;42.700;23.124;2022-12-31T00:04:54;93877.62;;;8.41;88.48
10718;BME280;13513;42.700;23.124;2022-12-31T00:07:25;93874.63;;;8.53;87.78
10718;BME280;13513;42.700;23.124;2022-12-31T00:09:55;93879.02;;;8.65;86.79
10718;BME280;13513;42.700;23.124;2022-12-31T00:12:26;93878.73;;;8.64;86.01
10718;BME280;13513;42.700;23.124;2022-12-31T00:14:56;93878.53;;;8.59;86.27
10718;BME280;13513;42.700;23.124;2022-12-31T00:17:26;93880.22;;;8.47;86.44
10718;BME280;13513;42.700;23.124;2022-12-31T00:19:58;93884.82;;;8.07;89.45
10718;BME280;13513;42.700;23.124;2022-12-31T00:22:29;93891.83;;;7.98;90.51
10718;BME280;13513;42.700;23.124;2022-12-31T00:25:00;93891.96;;;8.16;90.55
10718;BME280;13513;42.700;23.124;2022-12-31T00:27:33;93896.61;;;8.27;89.92
10718;BME280;13513;42.700;23.124;2022-12-31T00:30:04;93890.85;;;8.28;89.45
10718;BME280;13513;42.700;23.124;2022-12-31T00:32:33;93892.58;;;8.24;90.25
10718;BME280;13513;42.700;23.124;2022-12-31T00:35:05;93898.31;;;8.37;89.42
10718;BME280;13513;42.700;23.124;2022-12-31T00:37:36;93906.13;;;8.28;89.83
10718;BME280;13513;42.700;23.124;2022-12-31T00:40:08;93903.13;;;8.40;88.81
10718;BME280;13513;42.700;23.124;2022-12-31T00:42:39;93906.73;;;8.30;88.66
10718;BME280;13513;42.700;23.124;2022-12-31T00:45:11;93906.27;;;8.46;88.06
10718;BME280;13513;42.700;23.124;2022-12-31T00:47:42;93914.42;;;8.60;87.62
10718;BME280;13513;42.700;23.124;2022-12-31T00:50:13;93904.34;;;8.66;87.28
10718;BME280;13513;42.700;23.124;2022-12-31T00:52:43;93909.03;;;8.64;86.63
10718;BME280;13513;42.700;23.124;2022-12-31T00:55:14;93907.95;;;8.50;87.85
10718;BME280;13513;42.700;23.124;2022-12-31T00:57:45;93911.23;;;8.45;88.43
10718;BME280;13513;42.700;23.124;2022-12-31T01:00:16;93908.48;;;8.49;88.51
10718;BME280;13513;42.700;23.124;2022-12-31T01:02:47;93906.64;;;8.50;88.06
10718;BME280;13513;42.700;23.124;2022-12-31T01:05:19;93910.27;;;8.55;88.00
10718;BME280;13513;42.700;23.124;2022-12-31T01:07:49;93908.04;;;8.59;87.80
10718;BME280;13513;42.700;23.124;2022-12-31T01:10:20;93912.11;;;8.55;87.51
10718;BME280;13513;42.700;23.124;2022-12-31T01:13:08;93914.02;;;8.57;87.06
10718;BME280;13513;42.700;23.124;2022-12-31T01:15:39;93915.85;;;8.56;87.17
10718;BME280;13513;42.700;23.124;2022-12-31T01:18:11;93912.81;;;8.53;87.67
10718;BME280;13513;42.700;23.124;2022-12-31T01:20:43;93908.45;;;8.56;87.43
10718;BME280;13513;42.700;23.124;2022-12-31T01:23:14;93919.03;;;8.65;87.05
10718;BME280;13513;42.700;23.124;2022-12-31T01:25:44;93921.47;;;8.66;86.53
10718;BME280;13513;42.700;23.124;2022-12-31T01:28:13;93926.70;;;8.73;85.90
10718;BME280;13513;42.700;23.124;2022-12-31T01:30:44;93923.52;;;8.80;85.18
10718;BME280;13513;42.700;23.124;2022-12-31T01:33:17;93931.05;;;8.76;85.66
10718;BME280;13513;42.700;23.124;2022-12-31T01:35:47;93935.49;;;8.60;87.13
10718;BME280;13513;42.700;23.124;2022-12-31T01:38:20;93936.16;;;8.65;86.48
10718;BME280;13513;42.700;23.124;2022-12-31T01:40:52;93939.20;;;8.68;86.50
10718;BME280;13513;42.700;23.124;2022-12-31T01:43:23;93938.95;;;8.76;84.74
10718;BME280;13513;42.700;23.124;2022-12-31T01:45:54;93932.03;;;8.60;85.21
10718;BME280;13513;42.700;23.124;2022-12-31T01:48:25;93936.61;;;8.33;86.30
10718;BME280;13513;42.700;23.124;2022-12-31T01:50:56;93938.17;;;7.99;88.60
10718;BME280;13513;42.700;23.124;2022-12-31T01:53:28;93941.97;;;7.68;90.40
10718;BME280;13513;42.700;23.124;2022-12-31T01:55:59;93944.00;;;7.46;92.10
10718;BME280;13513;42.700;23.124;2022-12-31T01:58:39;93934.97;;;7.25;93.90
10718;BME280;13513;42.700;23.124;2022-12-31T02:01:10;93939.83;;;7.15;95.01
10718;BME280;13513;42.700;23.124;2022-12-31T02:03:40;93945.05;;;7.02;95.68
10718;BME280;13513;42.700;23.124;2022-12-31T02:06:14;93941.39;;;6.90;96.52
10718;BME280;13513;42.700;23.124;2022-12-31T02:08:44;93940.05;;;6.71;97.84
10718;BME280;13513;42.700;23.124;2022-12-31T02:11:24;93947.67;;;6.59;99.14
10718;BME280;13513;42.700;23.124;2022-12-31T02:13:55;93951.48;;;6.27;100.00
10718;BME280;13513;42.700;23.124;2022-12-31T02:16:32;93954.34;;;6.15;100.00
10718;BME280;13513;42.700;23.124;2022-12-31T02:19:27;93959.05;;;6.09;100.00
10718;BME280;13513;42.700;23.124;2022-12-31T02:21:57;93959.05;;;6.09;100.00
10718;BME280;13513;42.700;23.124;2022-12-31T02:24:44;93966.36;;;5.96;100.00
10718;BME280;13513;42.700;23.124;2022-12-31T02:27:09;93960.29;;;5.96;100.00
10718;BME280;13513;42.700;23.124;2022-12-31T02:30:04;93960.29;;;5.96;100.00
10718;BME280;13513;42.700;23.124;2022-12-31T02:32:45;93965.84;;;5.97;100.00
10718;BME280;13513;42.700;23.124;2022-12-31T02:35:21;93970.13;;;5.77;100.00
10718;BME280;13513;42.700;23.124;2022-12-31T02:37:51;93978.29;;;5.78;100.00
10718;BME280;13513;42.700;23.124;2022-12-31T02:40:22;93972.81;;;5.73;100.00
10718;BME280;13513;42.700;23.124;2022-12-31T02:42:52;93977.76;;;5.72;100.00
10718;BME280;13513;42.700;23.124;2022-12-31T02:45:28;93971.87;;;5.80;100.00
10718;BME280;13513;42.700;23.124;2022-12-31T02:48:17;93982.17;;;5.92;100.00
10718;BME280;13513;42.700;23.124;2022-12-31T02:51:05;93974.42;;;5.95;100.00
10718;BME280;13513;42.700;23.124;2022-12-31T02:56:32;93965.39;;;5.49;100.00
10718;BME280;13513;42.700;23.124;2022-12-31T02:59:18;93965.39;;;5.49;100.00
10718;BME280;13513;42.700;23.124;2022-12-31T03:02:06;93960.33;;;5.47;100.00
10718;BME280;13513;42.700;23.124;2022-12-31T03:04:59;93962.48;;;5.65;100.00
10718;BME280;13513;42.700;23.124;2022-12-31T03:07:31;93962.48;;;5.65;100.00
10718;BME280;13513;42.700;23.124;2022-12-31T03:10:03;93967.45;;;5.70;100.00
10718;BME280;13513;42.700;23.124;2022-12-31T03:12:34;93958.77;;;5.70;100.00
10718;BME280;13513;42.700;23.124;2022-12-31T03:15:28;93955.36;;;5.69;100.00
10718;BME280;13513;42.700;23.124;2022-12-31T03:18:00;93952.41;;;5.68;100.00
10718;BME280;13513;42.700;23.124;2022-12-31T03:23:25;93949.06;;;5.64;100.00
10718;BME280;13513;42.700;23.124;2022-12-31T03:25:54;93952.25;;;5.76;100.00
10718;BME280;13513;42.700;23.124;2022-12-31T03:28:27;93960.27;;;5.79;100.00
10718;BME280;13513;42.700;23.124;2022-12-31T03:31:00;93960.27;;;5.79;100.00
10718;BME280;13513;42.700;23.124;2022-12-31T03:33:33;93953.14;;;5.83;100.00
10718;BME280;13513;42.700;23.124;2022-12-31T03:36:10;93953.24;;;5.96;100.00
10718;BME280;13513;42.700;23.124;2022-12-31T03:38:36;93959.17;;;5.94;100.00
10718;BME280;13513;42.700;23.124;2022-12-31T03:41:10;93952.61;;;5.94;100.00
10718;BME280;13513;42.700;23.124;2022-12-31T03:43:40;93959.28;;;5.97;100.00
10718;BME280;13513;42.700;23.124;2022-12-31T03:46:11;93956.20;;;6.04;100.00
10718;BME280;13513;42.700;23.124;2022-12-31T03:48:42;93952.58;;;5.88;100.00
10718;BME280;13513;42.700;23.124;2022-12-31T03:51:12;93954.45;;;6.17;100.00
10718;BME280;13513;42.700;23.124;2022-12-31T03:53:44;93957.63;;;6.23;100.00
10718;BME280;13513;42.700;23.124;2022-12-31T03:56:14;93952.84;;;6.40;100.00
10718;BME280;13513;42.700;23.124;2022-12-31T03:58:45;93962.02;;;6.40;100.00
10718;BME280;13513;42.700;23.124;2022-12-31T04:01:16;93961.20;;;6.33;100.00
10718;BME280;13513;42.700;23.124;2022-12-31T04:03:47;93970.17;;;6.11;100.00
10718;BME280;13513;42.700;23.124;2022-12-31T04:06:20;93973.10;;;5.95;100.00
10718;BME280;13513;42.700;23.124;2022-12-31T04:08:51;93976.37;;;5.86;100.00
10718;BME280;13513;42.700;23.124;2022-12-31T04:11:22;93980.12;;;5.77;100.00
10718;BME280;13513;42.700;23.124;2022-12-31T04:13:53;93986.79;;;5.80;100.00
10718;BME280;13513;42.700;23.124;2022-12-31T04:16:24;93990.42;;;5.79;100.00
10718;BME280;13513;42.700;23.124;2022-12-31T04:18:55;93985.66;;;5.78;100.00
10718;BME280;13513;42.700;23.124;2022-12-31T04:21:26;93990.49;;;5.75;100.00
10718;BME280;13513;42.700;23.124;2022-12-31T04:23:57;93992.06;;;5.69;100.00
10718;BME280;13513;42.700;23.124;2022-12-31T04:26:28;93988.02;;;5.56;100.00
10718;BME280;13513;42.700;23.124;2022-12-31T04:28:59;93986.19;;;5.67;100.00
10718;BME280;13513;42.700;23.124;2022-12-31T04:31:32;93995.55;;;5.87;100.00
10718;BME280;13513;42.700;23.124;2022-12-31T04:34:02;93993.64;;;5.91;100.00
10718;BME280;13513;42.700;23.124;2022-12-31T04:36:34;93999.78;;;6.05;100.00
10718;BME280;13513;42.700;23.124;2022-12-31T04:39:07;93997.40;;;6.27;100.00
10718;BME280;13513;42.700;23.124;2022-12-31T04:41:36;93994.44;;;6.60;100.00
10718;BME280;13513;42.700;23.124;2022-12-31T04:44:07;93990.73;;;6.71;100.00
10718;BME280;13513;42.700;23.124;2022-12-31T04:46:38;93997.56;;;6.83;100.00
10718;BME280;13513;42.700;23.124;2022-12-31T04:49:09;93995.89;;;6.99;100.00
10718;BME280;13513;42.700;23.124;2022-12-31T04:51:40;94001.78;;;7.07;100.00
10718;BME280;13513;42.700;23.124;2022-12-31T04:54:11;94001.88;;;7.10;100.00
10718;BME280;13513;42.700;23.124;2022-12-31T04:56:41;94003.29;;;7.06;100.00
10718;BME280;13513;42.700;23.124;2022-12-31T04:59:12;94005.96;;;6.95;100.00
10718;BME280;13513;42.700;23.124;2022-12-31T05:01:43;94010.92;;;6.94;100.00
10718;BME280;13513;42.700;23.124;2022-12-31T05:04:13;94008.04;;;6.53;100.00
10718;BME280;13513;42.700;23.124;2022-12-31T05:06:43;94015.58;;;6.28;100.00
10718;BME280;13513;42.700;23.124;2022-12-31T05:09:14;94016.55;;;6.21;100.00
10718;BME280;13513;42.700;23.124;2022-12-31T05:11:46;94024.81;;;6.18;100.00
10718;BME280;13513;42.700;23.124;2022-12-31T05:14:16;94023.95;;;6.11;100.00
10718;BME280;13513;42.700;23.124;2022-12-31T05:16:48;94026.77;;;5.92;100.00
10718;BME280;13513;42.700;23.124;2022-12-31T05:19:18;94032.45;;;5.85;100.00
10718;BME280;13513;42.700;23.124;2022-12-31T05:21:48;94034.31;;;5.70;100.00
10718;BME280;13513;42.700;23.124;2022-12-31T05:24:35;94037.00;;;5.66;100.00
10718;BME280;13513;42.700;23.124;2022-12-31T05:27:07;94036.55;;;5.63;100.00
10718;BME280;13513;42.700;23.124;2022-12-31T05:29:37;94042.27;;;5.56;100.00
10718;BME280;13513;42.700;23.124;2022-12-31T05:32:08;94035.40;;;5.34;100.00
10718;BME280;13513;42.700;23.124;2022-12-31T05:34:39;94040.00;;;5.21;100.00
10718;BME280;13513;42.700;23.124;2022-12-31T05:37:10;94047.50;;;5.14;100.00
10718;BME280;13513;42.700;23.124;2022-12-31T05:39:41;94049.60;;;5.14;100.00
10718;BME280;13513;42.700;23.124;2022-12-31T05:42:12;94048.23;;;5.18;100.00
10718;BME280;13513;42.700;23.124;2022-12-31T05:44:43;94048.41;;;5.06;100.00
10718;BME280;13513;42.700;23.124;2022-12-31T05:47:13;94048.89;;;4.95;100.00
10718;BME280;13513;42.700;23.124;2022-12-31T05:49:43;94040.80;;;5.01;100.00
10718;BME280;13513;42.700;23.124;2022-12-31T05:52:13;94044.66;;;5.05;100.00
10718;BME280;13513;42.700;23.124;2022-12-31T05:54:44;94045.67;;;5.04;100.00
10718;BME280;13513;42.700;23.124;2022-12-31T05:57:14;94041.67;;;4.97;100.00
10718;BME280;13513;42.700;23.124;2022-12-31T05:59:45;94040.97;;;4.89;100.00
10718;BME280;13513;42.700;23.124;2022-12-31T06:02:16;94049.18;;;4.86;100.00
10718;BME280;13513;42.700;23.124;2022-12-31T06:04:47;94050.59;;;4.92;100.00
10718;BME280;13513;42.700;23.124;2022-12-31T06:07:18;94055.89;;;4.99;100.00
10718;BME280;13513;42.700;23.124;2022-12-31T06:09:49;94058.58;;;5.05;100.00
10718;BME280;13513;42.700;23.124;2022-12-31T06:12:19;94052.04;;;5.16;100.00
10718;BME280;13513;42.700;23.124;2022-12-31T06:14:50;94061.67;;;4.94;100.00
10718;BME280;13513;42.700;23.124;2022-12-31T06:17:21;94061.79;;;4.86;100.00
10718;BME280;13513;42.700;23.124;2022-12-31T06:19:52;94066.84;;;4.88;100.00
10718;BME280;13513;42.700;23.124;2022-12-31T06:22:23;94070.00;;;4.83;100.00
10718;BME280;13513;42.700;23.124;2022-12-31T06:24:54;94073.67;;;4.78;100.00
10718;BME280;13513;42.700;23.124;2022-12-31T06:27:24;94082.61;;;4.84;100.00
10718;BME280;13513;42.700;23.124;2022-12-31T06:29:55;94084.53;;;4.86;100.00
10718;BME280;13513;42.700;23.124;2022-12-31T06:32:26;94087.37;;;4.95;100.00
10718;BME280;13513;42.700;23.124;2022-12-31T06:34:56;94096.02;;;5.10;100.00
10718;BME280;13513;42.700;23.124;2022-12-31T06:37:27;94090.00;;;5.30;100.00
10718;BME280;13513;42.700;23.124;2022-12-31T06:39:57;94091.86;;;5.47;100.00
10718;BME280;13513;42.700;23.124;2022-12-31T06:42:29;94088.73;;;5.68;100.00
10718;BME280;13513;42.700;23.124;2022-12-31T06:45:00;94095.25;;;5.93;100.00
10718;BME280;13513;42.700;23.124;2022-12-31T06:47:35;94096.26;;;6.20;100.00
10718;BME280;13513;42.700;23.124;2022-12-31T06:50:06;94097.72;;;6.39;100.00
10718;BME280;13513;42.700;23.124;2022-12-31T06:52:37;94103.34;;;6.36;100.00
10718;BME280;13513;42.700;23.124;2022-12-31T06:55:08;94103.15;;;6.21;100.00
10718;BME280;13513;42.700;23.124;2022-12-31T06:57:40;94102.63;;;6.21;100.00
10718;BME280;13513;42.700;23.124;2022-12-31T07:00:12;94105.00;;;6.27;100.00
10718;BME280;13513;42.700;23.124;2022-12-31T07:03:13;94110.58;;;7.02;100.00
10718;BME280;13513;42.700;23.124;2022-12-31T07:05:50;94105.80;;;8.44;100.00
10718;BME280;13513;42.700;23.124;2022-12-31T07:08:36;94101.59;;;10.50;91.08
10718;BME280;13513;42.700;23.124;2022-12-31T07:11:10;94104.61;;;11.41;75.93
10718;BME280;13513;42.700;23.124;2022-12-31T07:13:47;94113.33;;;11.69;67.12
10718;BME280;13513;42.700;23.124;2022-12-31T07:16:47;94105.50;;;13.11;60.01
10718;BME280;13513;42.700;23.124;2022-12-31T07:21:57;94108.39;;;14.75;52.34
10718;BME280;13513;42.700;23.124;2022-12-31T07:24:28;94113.83;;;15.75;47.28
10718;BME280;13513;42.700;23.124;2022-12-31T07:30:13;94122.84;;;18.97;40.50
10718;BME280;13513;42.700;23.124;2022-12-31T07:33:10;94130.80;;;20.51;37.70
10718;BME280;13513;42.700;23.124;2022-12-31T07:35:47;94122.51;;;21.81;34.93
10718;BME280;13513;42.700;23.124;2022-12-31T07:41:41;94127.44;;;23.67;31.11
10718;BME280;13513;42.700;23.124;2022-12-31T07:46:53;94125.28;;;24.50;28.89
10718;BME280;13513;42.700;23.124;2022-12-31T07:49:26;94137.00;;;25.08;28.24
10718;BME280;13513;42.700;23.124;2022-12-31T07:51:56;94136.15;;;25.87;27.66
10718;BME280;13513;42.700;23.124;2022-12-31T07:54:27;94140.92;;;24.91;27.67
10718;BME280;13513;42.700;23.124;2022-12-31T07:56:58;94137.65;;;23.84;29.36
10718;BME280;13513;42.700;23.124;2022-12-31T07:59:40;94139.28;;;25.26;27.98
10718;BME280;13513;42.700;23.124;2022-12-31T08:02:34;94135.97;;;26.53;26.56
10718;BME280;13513;42.700;23.124;2022-12-31T08:05:13;94139.13;;;27.54;25.55
10718;BME280;13513;42.700;23.124;2022-12-31T08:07:55;94140.00;;;28.84;24.15
10718;BME280;13513;42.700;23.124;2022-12-31T08:13:13;94139.63;;;30.48;22.28
10718;BME280;13513;42.700;23.124;2022-12-31T08:15:45;94141.20;;;31.27;21.32
10718;BME280;13513;42.700;23.124;2022-12-31T08:18:17;94137.88;;;31.39;20.57
10718;BME280;13513;42.700;23.124;2022-12-31T08:21:10;94131.01;;;31.51;20.98
10718;BME280;13513;42.700;23.124;2022-12-31T08:26:37;94136.29;;;31.72;20.79
10718;BME280;13513;42.700;23.124;2022-12-31T08:29:34;94142.96;;;31.53;20.92
10718;BME280;13513;42.700;23.124;2022-12-31T08:35:03;94138.13;;;30.44;21.31
10718;BME280;13513;42.700;23.124;2022-12-31T08:37:36;94142.92;;;29.70;22.11
10718;BME280;13513;42.700;23.124;2022-12-31T08:40:28;94138.15;;;29.05;23.13
10718;BME280;13513;42.700;23.124;2022-12-31T08:43:27;94141.67;;;28.62;23.17
10718;BME280;13513;42.700;23.124;2022-12-31T08:45:50;94138.97;;;28.83;23.51
10718;BME280;13513;42.700;23.124;2022-12-31T08:48:38;94137.41;;;29.17;23.22
10718;BME280;13513;42.700;23.124;2022-12-31T08:51:16;94136.03;;;27.33;24.08
10718;BME280;13513;42.700;23.124;2022-12-31T08:53:45;94137.78;;;24.60;27.51
10718;BME280;13513;42.700;23.124;2022-12-31T08:56:36;94135.39;;;22.73;30.58
10718;BME280;13513;42.700;23.124;2022-12-31T08:59:12;94136.17;;;22.55;30.76
10718;BME280;13513;42.700;23.124;2022-12-31T09:07:37;94128.36;;;21.60;33.37
10718;BME280;13513;42.700;23.124;2022-12-31T09:15:57;94121.66;;;23.26;31.16
10718;BME280;13513;42.700;23.124;2022-12-31T09:18:26;94124.64;;;22.89;31.62
10718;BME280;13513;42.700;23.124;2022-12-31T09:20:56;94124.47;;;21.97;33.40
10718;BME280;13513;42.700;23.124;2022-12-31T09:23:27;94127.30;;;20.89;34.80
10718;BME280;13513;42.700;23.124;2022-12-31T09:28:55;94123.61;;;17.81;40.46
10718;BME280;13513;42.700;23.124;2022-12-31T09:31:39;94122.29;;;17.37;41.73
10718;BME280;13513;42.700;23.124;2022-12-31T09:36:49;94108.97;;;16.71;43.96
10718;BME280;13513;42.700;23.124;2022-12-31T09:39:32;94105.27;;;16.19;45.44
10718;BME280;13513;42.700;23.124;2022-12-31T09:42:35;94099.40;;;15.95;46.33
10718;BME280;13513;42.700;23.124;2022-12-31T09:45:21;94097.25;;;15.14;47.84
10718;BME280;13513;42.700;23.124;2022-12-31T09:48:03;94092.41;;;15.11;49.74
10718;BME280;13513;42.700;23.124;2022-12-31T10:01:52;94083.25;;;14.50;53.03
10718;BME280;13513;42.700;23.124;2022-12-31T10:04:31;94074.61;;;14.43;54.35
10718;BME280;13513;42.700;23.124;2022-12-31T10:12:38;94077.58;;;14.02;56.28
10718;BME280;13513;42.700;23.124;2022-12-31T10:15:53;94069.05;;;13.58;59.24
10718;BME280;13513;42.700;23.124;2022-12-31T10:20:26;94058.77;;;14.50;56.07
10718;BME280;13513;42.700;23.124;2022-12-31T10:23:20;94054.77;;;14.83;53.00
10718;BME280;13513;42.700;23.124;2022-12-31T10:28:54;94054.38;;;14.25;54.81
10718;BME280;13513;42.700;23.124;2022-12-31T10:37:15;94059.62;;;13.78;58.86
10718;BME280;13513;42.700;23.124;2022-12-31T10:43:09;94067.91;;;13.54;61.20
10718;BME280;13513;42.700;23.124;2022-12-31T10:46:04;94058.33;;;13.27;62.59
10718;BME280;13513;42.700;23.124;2022-12-31T10:48:50;94058.50;;;13.35;62.52
10718;BME280;13513;42.700;23.124;2022-12-31T10:51:46;94054.16;;;13.31;64.14
10718;BME280;13513;42.700;23.124;2022-12-31T10:57:30;94049.14;;;13.58;62.80
10718;BME280;13513;42.700;23.124;2022-12-31T11:00:07;94057.09;;;13.72;63.38
10718;BME280;13513;42.700;23.124;2022-12-31T11:08:53;94044.22;;;14.22;59.12
10718;BME280;13513;42.700;23.124;2022-12-31T11:11:49;94053.54;;;14.39;59.58
10718;BME280;13513;42.700;23.124;2022-12-31T11:20:32;94040.11;;;14.31;58.61
10718;BME280;13513;42.700;23.124;2022-12-31T11:28:55;94037.05;;;14.09;59.62
10718;BME280;13513;42.700;23.124;2022-12-31T11:31:39;94036.50;;;13.93;60.20
10718;BME280;13513;42.700;23.124;2022-12-31T11:34:28;94032.44;;;13.74;61.45
10718;BME280;13513;42.700;23.124;2022-12-31T11:40:11;94036.42;;;13.74;61.12
10718;BME280;13513;42.700;23.124;2022-12-31T11:43:00;94030.77;;;13.84;60.92
10718;BME280;13513;42.700;23.124;2022-12-31T11:45:39;94020.83;;;14.74;55.53
10718;BME280;13513;42.700;23.124;2022-12-31T11:48:14;94014.41;;;17.01;48.53
10718;BME280;13513;42.700;23.124;2022-12-31T11:51:00;94016.48;;;19.02;42.41
10718;BME280;13513;42.700;23.124;2022-12-31T11:53:49;94014.62;;;19.00;41.42
10718;BME280;13513;42.700;23.124;2022-12-31T11:56:15;94017.77;;;19.99;39.41
10718;BME280;13513;42.700;23.124;2022-12-31T11:58:54;94019.70;;;19.83;38.98
10718;BME280;13513;42.700;23.124;2022-12-31T12:04:20;94021.62;;;21.53;35.93
10718;BME280;13513;42.700;23.124;2022-12-31T12:06:51;94022.64;;;21.36;35.99
10718;BME280;13513;42.700;23.124;2022-12-31T12:09:28;94024.71;;;22.09;34.61
10718;BME280;13513;42.700;23.124;2022-12-31T12:12:03;94022.87;;;22.97;33.47
10718;BME280;13513;42.700;23.124;2022-12-31T12:14:37;94024.13;;;21.94;34.37
10718;BME280;13513;42.700;23.124;2022-12-31T12:17:11;94029.64;;;22.05;33.78
10718;BME280;13513;42.700;23.124;2022-12-31T12:19:44;94026.67;;;22.04;33.21
10718;BME280;13513;42.700;23.124;2022-12-31T12:22:19;94026.23;;;21.76;33.78
10718;BME280;13513;42.700;23.124;2022-12-31T12:25:04;94026.20;;;21.29;35.01
10718;BME280;13513;42.700;23.124;2022-12-31T12:27:34;94020.66;;;21.91;33.28
10718;BME280;13513;42.700;23.124;2022-12-31T12:30:13;94028.70;;;20.92;34.00
10718;BME280;13513;42.700;23.124;2022-12-31T12:32:49;94030.49;;;20.32;35.22
10718;BME280;13513;42.700;23.124;2022-12-31T12:35:18;94024.74;;;19.33;36.15
10718;BME280;13513;42.700;23.124;2022-12-31T12:38:01;94021.27;;;19.13;37.28
10718;BME280;13513;42.700;23.124;2022-12-31T12:40:31;94028.53;;;18.92;37.05
10718;BME280;13513;42.700;23.124;2022-12-31T12:43:03;94027.76;;;18.79;37.36
10718;BME280;13513;42.700;23.124;2022-12-31T12:45:46;94027.25;;;18.60;37.93
10718;BME280;13513;42.700;23.124;2022-12-31T12:57:28;94040.99;;;16.47;42.17
10718;BME280;13513;42.700;23.124;2022-12-31T13:00:28;94044.92;;;16.13;42.91
10718;BME280;13513;42.700;23.124;2022-12-31T13:03:08;94042.88;;;15.48;43.88
10718;BME280;13513;42.700;23.124;2022-12-31T13:09:08;94041.14;;;15.37;44.72
10718;BME280;13513;42.700;23.124;2022-12-31T13:11:45;94044.62;;;15.37;44.78
10718;BME280;13513;42.700;23.124;2022-12-31T13:15:17;94047.47;;;15.33;44.88
10718;BME280;13513;42.700;23.124;2022-12-31T13:17:24;94049.20;;;15.23;45.62
10718;BME280;13513;42.700;23.124;2022-12-31T13:19:51;94048.81;;;15.14;45.89
10718;BME280;13513;42.700;23.124;2022-12-31T13:22:26;94050.75;;;15.00;47.38
10718;BME280;13513;42.700;23.124;2022-12-31T13:27:51;94063.63;;;14.89;46.15
10718;BME280;13513;42.700;23.124;2022-12-31T13:30:41;94065.41;;;14.83;46.71
10718;BME280;13513;42.700;23.124;2022-12-31T13:33:33;94060.74;;;14.74;47.67
10718;BME280;13513;42.700;23.124;2022-12-31T13:36:12;94060.91;;;14.67;47.21
10718;BME280;13513;42.700;23.124;2022-12-31T13:38:41;94067.09;;;14.54;47.92
10718;BME280;13513;42.700;23.124;2022-12-31T13:47:09;94067.59;;;14.37;48.27
10718;BME280;13513;42.700;23.124;2022-12-31T13:50:07;94066.62;;;14.26;49.32
10718;BME280;13513;42.700;23.124;2022-12-31T13:55:25;94069.72;;;13.25;51.77
10718;BME280;13513;42.700;23.124;2022-12-31T13:58:20;94072.96;;;12.93;54.22
10718;BME280;13513;42.700;23.124;2022-12-31T14:00:53;94083.39;;;12.85;54.92
10718;BME280;13513;42.700;23.124;2022-12-31T14:08:56;94079.05;;;12.36;58.77
10718;BME280;13513;42.700;23.124;2022-12-31T14:11:41;94081.58;;;12.31;59.11
10718;BME280;13513;42.700;23.124;2022-12-31T14:14:36;94093.07;;;12.13;60.99
10718;BME280;13513;42.700;23.124;2022-12-31T14:17:11;94091.19;;;12.02;61.61
10718;BME280;13513;42.700;23.124;2022-12-31T14:19:59;94085.09;;;11.72;64.02
10718;BME280;13513;42.700;23.124;2022-12-31T14:22:46;94080.55;;;11.61;65.46
10718;BME280;13513;42.700;23.124;2022-12-31T14:25:26;94076.31;;;11.33;67.32
10718;BME280;13513;42.700;23.124;2022-12-31T14:27:58;94077.42;;;11.16;69.31
10718;BME280;13513;42.700;23.124;2022-12-31T14:30:34;94075.51;;;11.05;70.30
10718;BME280;13513;42.700;23.124;2022-12-31T14:33:27;94070.45;;;10.95;71.41
10718;BME280;13513;42.700;23.124;2022-12-31T14:38:37;94070.71;;;10.69;73.58
10718;BME280;13513;42.700;23.124;2022-12-31T14:47:05;94076.15;;;10.31;76.96
10718;BME280;13513;42.700;23.124;2022-12-31T14:52:32;94081.28;;;10.11;78.37
10718;BME280;13513;42.700;23.124;2022-12-31T14:57:45;94084.19;;;9.87;81.67
10718;BME280;13513;42.700;23.124;2022-12-31T15:00:35;94088.08;;;9.78;82.00
10718;BME280;13513;42.700;23.124;2022-12-31T15:17:52;94092.95;;;9.22;86.45
10718;BME280;13513;42.700;23.124;2022-12-31T15:23:24;94100.78;;;9.41;85.46
10718;BME280;13513;42.700;23.124;2022-12-31T15:25:59;94108.20;;;9.35;85.14
10718;BME280;13513;42.700;23.124;2022-12-31T15:28:38;94111.17;;;9.30;85.47
10718;BME280;13513;42.700;23.124;2022-12-31T15:31:16;94118.38;;;9.32;85.64
10718;BME280;13513;42.700;23.124;2022-12-31T15:34:21;94121.92;;;9.28;85.74
10718;BME280;13513;42.700;23.124;2022-12-31T15:36:49;94122.01;;;9.37;84.89
10718;BME280;13513;42.700;23.124;2022-12-31T15:41:49;94120.31;;;9.27;85.56
10718;BME280;13513;42.700;23.124;2022-12-31T15:44:49;94117.73;;;9.08;87.01
10718;BME280;13513;42.700;23.124;2022-12-31T15:47:32;94120.17;;;9.16;86.86
10718;BME280;13513;42.700;23.124;2022-12-31T15:50:02;94118.75;;;9.07;88.23
10718;BME280;13513;42.700;23.124;2022-12-31T15:52:54;94117.91;;;9.19;87.31
10718;BME280;13513;42.700;23.124;2022-12-31T15:55:37;94124.38;;;9.23;86.72
10718;BME280;13513;42.700;23.124;2022-12-31T15:58:09;94131.91;;;9.20;87.37
10718;BME280;13513;42.700;23.124;2022-12-31T16:03:20;94134.23;;;9.19;87.16
10718;BME280;13513;42.700;23.124;2022-12-31T16:05:51;94142.48;;;9.07;88.17
10718;BME280;13513;42.700;23.124;2022-12-31T16:08:24;94071.31;;;8.72;87.95
10718;BME280;13513;42.700;23.124;2022-12-31T16:10:55;94147.27;;;8.94;88.95
10718;BME280;13513;42.700;23.124;2022-12-31T16:13:27;94155.30;;;8.97;89.82
10718;BME280;13513;42.700;23.124;2022-12-31T16:16:05;94160.02;;;9.04;89.11
10718;BME280;13513;42.700;23.124;2022-12-31T16:18:42;94161.76;;;9.07;88.96
10718;BME280;13513;42.700;23.124;2022-12-31T16:21:36;94163.19;;;9.03;89.30
10718;BME280;13513;42.700;23.124;2022-12-31T16:24:27;94170.80;;;9.02;89.66
10718;BME280;13513;42.700;23.124;2022-12-31T16:27:06;94173.22;;;8.97;90.61